Time;durP1;ratioP1;P1;durP2;ratioP2;P2;SDS_P1;SDS_P2;PMS_P1;PMS_P2;Temp;Humidity;BMP_temperature;BMP_pressure;BME280_temperature;BME280_humidity;BME280_pressure;Samples;Min_cycle;Max_cycle;Signal;HPM_P1;HPM_P2
2022/03/21 00:01:35;;;;;;;23.08;11.18;;;;;;;-5.53;68.78;96724.38;5020427;28;20045;-47
2022/03/21 00:04:02;;;;;;;23.42;12.77;;;;;;;-5.66;69.91;96719.97;5023040;28;20440;-49
2022/03/21 00:06:29;;;;;;;27.05;11.77;;;;;;;-5.48;69.47;96723.22;5021676;28;20516;-47
2022/03/21 00:08:55;;;;;;;31.98;12.18;;;;;;;-5.43;68.86;96725.50;5020566;28;20050;-47
2022/03/21 00:11:22;;;;;;;27.65;11.73;;;;;;;-5.39;68.54;96716.81;5021803;28;22013;-49
2022/03/21 00:13:51;;;;;;;25.42;10.02;;;;;;;-5.41;68.60;96723.69;5025635;28;20466;-49
2022/03/21 00:16:18;;;;;;;27.83;10.85;;;;;;;-5.55;68.74;96724.44;5021284;28;20199;-48
2022/03/21 00:18:45;;;;;;;19.98;9.40;;;;;;;-5.62;69.11;96710.47;5024946;28;20111;-51
2022/03/21 00:21:11;;;;;;;7.32;4.47;;;;;;;-5.64;69.92;96714.81;5024663;28;20492;-46
2022/03/21 00:23:38;;;;;;;32.80;12.88;;;;;;;-5.74;71.62;96711.97;5024110;28;20443;-45
2022/03/21 00:26:05;;;;;;;38.22;13.60;;;;;;;-5.69;71.63;96715.06;5020009;28;20518;-46
2022/03/21 00:28:32;;;;;;;19.15;9.90;;;;;;;-5.67;70.75;96708.19;5021296;28;20045;-52
2022/03/21 00:30:59;;;;;;;29.08;12.43;;;;;;;-5.83;70.53;96722.63;5034990;28;20585;-46
2022/03/21 00:33:26;;;;;;;22.65;10.23;;;;;;;-5.84;70.29;96716.72;5020391;28;20074;-52
2022/03/21 00:35:53;;;;;;;20.35;10.38;;;;;;;-5.84;70.52;96715.91;5021395;28;20041;-46
2022/03/21 00:38:21;;;;;;;31.88;10.63;;;;;;;-5.91;70.63;96724.75;5027293;28;20039;-48
2022/03/21 00:40:48;;;;;;;16.80;8.38;;;;;;;-5.89;70.76;96717.88;5019959;28;20138;-47
2022/03/21 00:43:18;;;;;;;15.57;9.18;;;;;;;-5.90;71.20;96711.16;5019988;28;20103;-50
2022/03/21 00:45:46;;;;;;;25.60;14.27;;;;;;;-6.03;71.33;96695.78;5019667;28;20426;-49
2022/03/21 00:48:13;;;;;;;22.50;10.40;;;;;;;-5.88;71.21;96709.38;5020301;28;20061;-47
2022/03/21 00:50:40;;;;;;;25.73;9.77;;;;;;;-5.97;71.54;96714.06;5021077;28;20046;-49
2022/03/21 00:53:07;;;;;;;17.83;8.57;;;;;;;-5.99;70.72;96718.41;5020688;28;20144;-48
2022/03/21 00:55:34;;;;;;;18.38;9.75;;;;;;;-6.06;70.69;96717.09;5022990;28;20403;-49
2022/03/21 00:58:01;;;;;;;21.90;11.05;;;;;;;-6.12;70.88;96712.34;5019964;28;20053;-50
2022/03/21 01:00:30;;;;;;;25.73;9.18;;;;;;;-6.13;70.74;96710.72;5023518;28;20048;-47
2022/03/21 01:02:59;;;;;;;25.08;10.90;;;;;;;-6.16;72.19;96713.41;5020236;28;20073;-47
2022/03/21 01:05:27;;;;;;;23.48;11.27;;;;;;;-6.12;72.39;96703.91;5023333;28;20056;-49
2022/03/21 01:07:55;;;;;;;23.58;11.30;;;;;;;-6.04;72.09;96710.22;5020698;28;20095;-46
2022/03/21 01:10:22;;;;;;;31.88;8.90;;;;;;;-6.16;71.81;96695.63;5020899;28;20053;-46
2022/03/21 01:12:50;;;;;;;24.98;10.52;;;;;;;-6.17;72.07;96707.50;5020960;28;20033;-48
2022/03/21 01:15:19;;;;;;;19.17;9.43;;;;;;;-6.20;72.66;96699.25;5018695;28;20773;-49
2022/03/21 01:17:46;;;;;;;24.52;9.88;;;;;;;-6.29;72.73;96694.66;5021670;28;20080;-50
2022/03/21 01:20:15;;;;;;;21.15;9.27;;;;;;;-6.30;73.14;96687.94;5017708;28;20071;-49
2022/03/21 01:22:43;;;;;;;26.95;9.98;;;;;;;-6.30;73.42;96698.94;5018436;28;20436;-49
2022/03/21 01:25:10;;;;;;;28.60;10.90;;;;;;;-6.41;73.76;96676.69;5019953;28;20111;-50
2022/03/21 01:27:38;;;;;;;20.30;11.13;;;;;;;-6.38;74.74;96679.03;5020054;28;20042;-47
2022/03/21 01:30:10;;;;;;;26.80;9.40;;;;;;;-6.32;74.28;96670.28;5021078;28;20083;-47
2022/03/21 01:32:38;;;;;;;28.83;11.52;;;;;;;-6.28;73.81;96666.69;5019055;28;20041;-53
2022/03/21 01:35:06;;;;;;;27.63;10.02;;;;;;;-6.33;73.52;96667.84;5019446;28;20041;-45
2022/03/21 01:37:32;;;;;;;19.98;10.85;;;;;;;-6.43;73.79;96678.44;5022867;28;20719;-48
2022/03/21 01:39:59;;;;;;;30.00;11.40;;;;;;;-6.50;73.16;96671.25;5021157;28;20411;-48
2022/03/21 01:42:26;;;;;;;28.13;11.90;;;;;;;-6.60;73.54;96668.38;5021316;28;20049;-47
2022/03/21 01:44:55;;;;;;;22.83;12.65;;;;;;;-6.71;74.26;96668.13;5021432;28;20049;-53
2022/03/21 01:47:24;;;;;;;21.48;12.23;;;;;;;-6.71;75.12;96673.19;5018779;28;20441;-45
2022/03/21 01:49:51;;;;;;;26.85;12.52;;;;;;;-6.74;75.88;96664.03;5018717;28;20045;-49
2022/03/21 01:52:21;;;;;;;37.97;17.73;;;;;;;-6.70;76.39;96669.75;5018947;28;20053;-46
2022/03/21 01:57:34;;;;;;;33.28;14.40;;;;;;;-6.57;76.37;96665.69;5020560;28;20431;-49
2022/03/21 02:00:02;;;;;;;31.58;12.65;;;;;;;-6.60;76.30;96665.84;5018686;28;20748;-48
2022/03/21 02:02:38;;;;;;;34.88;14.27;;;;;;;-6.66;76.41;96651.78;5017871;28;20187;-51
2022/03/21 02:05:06;;;;;;;65.70;21.60;;;;;;;-6.68;76.24;96656.13;5018835;28;20041;-48
2022/03/21 02:07:33;;;;;;;46.78;18.52;;;;;;;-6.76;77.00;96660.75;5018619;28;20041;-46
2022/03/21 02:10:02;;;;;;;28.33;12.93;;;;;;;-6.82;77.36;96661.91;5019178;28;20561;-51
2022/03/21 02:12:30;;;;;;;31.73;14.60;;;;;;;-6.83;76.97;96660.25;5019424;28;20042;-46
2022/03/21 02:14:57;;;;;;;35.25;14.80;;;;;;;-6.94;76.78;96652.38;5017838;28;20442;-47
2022/03/21 02:17:25;;;;;;;31.45;11.18;;;;;;;-6.84;76.68;96662.84;5018728;28;20048;-50
2022/03/21 02:19:53;;;;;;;30.30;12.50;;;;;;;-6.85;76.87;96662.03;5018605;28;20058;-45
2022/03/21 02:22:28;;;;;;;29.35;11.68;;;;;;;-6.77;76.28;96670.09;5018331;28;20041;-48
2022/03/21 02:25:31;;;;;;;20.98;10.48;;;;;;;-6.77;76.50;96659.94;5019656;28;20049;-48
2022/03/21 02:28:05;;;;;;;20.52;10.18;;;;;;;-6.77;76.50;96670.09;5018513;28;20050;-51
2022/03/21 02:30:36;;;;;;;23.55;11.27;;;;;;;-6.76;76.40;96670.91;5035817;28;20110;-47
2022/03/21 02:33:04;;;;;;;21.80;9.57;;;;;;;-6.88;77.13;96661.38;5023491;28;20044;-48
2022/03/21 02:35:32;;;;;;;19.35;10.38;;;;;;;-6.83;77.10;96665.31;5023095;28;20208;-49
2022/03/21 02:38:00;;;;;;;16.70;9.30;;;;;;;-6.82;76.66;96666.97;5025594;28;20129;-52
2022/03/21 02:40:27;;;;;;;25.08;9.95;;;;;;;-6.84;76.25;96663.69;5026135;28;20060;-50
2022/03/21 02:42:54;;;;;;;15.00;9.10;;;;;;;-6.93;77.03;96669.22;5022406;28;20461;-45
2022/03/21 02:45:21;;;;;;;17.92;8.10;;;;;;;-6.99;76.69;96664.47;5022452;28;20394;-45
2022/03/21 02:47:48;;;;;;;21.60;8.75;;;;;;;-7.07;77.25;96671.66;5021435;28;20041;-49
2022/03/21 02:50:30;;;;;;;20.77;10.48;;;;;;;-7.13;78.91;96668.53;5022540;28;20780;-50
2022/03/21 02:52:58;;;;;;;16.63;8.27;;;;;;;-7.14;78.52;96656.75;5020292;28;20069;-47
2022/03/21 02:55:25;;;;;;;18.40;8.40;;;;;;;-7.04;77.33;96671.47;5020505;28;20045;-48
2022/03/21 02:57:51;;;;;;;15.02;7.10;;;;;;;-7.09;77.86;96668.34;5022256;28;20050;-47
2022/03/21 03:00:18;;;;;;;20.70;8.75;;;;;;;-7.13;78.11;96663.44;5024740;28;20060;-49
2022/03/21 03:02:45;;;;;;;21.20;9.02;;;;;;;-7.12;77.77;96670.13;5022261;28;20057;-47
2022/03/21 03:05:12;;;;;;;28.10;9.48;;;;;;;-7.20;78.77;96662.13;5022445;28;20048;-47
2022/03/21 03:07:38;;;;;;;28.42;7.97;;;;;;;-7.15;78.45;96674.53;5021335;28;20065;-48
2022/03/21 03:10:05;;;;;;;14.35;7.65;;;;;;;-7.15;78.73;96675.38;5021837;28;20045;-52
2022/03/21 03:12:32;;;;;;;19.08;8.45;;;;;;;-7.10;78.93;96672.59;5022579;28;20525;-49
2022/03/21 03:14:59;;;;;;;21.48;9.68;;;;;;;-7.01;78.52;96672.13;5022196;28;20072;-46
2022/03/21 03:17:26;;;;;;;19.08;9.05;;;;;;;-7.07;78.33;96671.66;5022541;28;20045;-47
2022/03/21 03:19:53;;;;;;;19.67;9.60;;;;;;;-7.06;78.37;96673.25;5022875;28;20045;-47
2022/03/21 03:22:23;;;;;;;18.95;9.38;;;;;;;-7.00;77.81;96667.91;5022756;28;20507;-47
2022/03/21 03:24:51;;;;;;;23.75;9.93;;;;;;;-7.15;78.29;96655.13;5022917;28;20044;-48
2022/03/21 03:27:18;;;;;;;19.52;9.07;;;;;;;-7.11;78.70;96670.97;5022986;28;20045;-45
2022/03/21 03:29:45;;;;;;;21.23;10.45;;;;;;;-7.26;79.71;96657.34;5025831;28;20053;-47
2022/03/21 03:32:12;;;;;;;33.05;11.10;;;;;;;-7.14;79.38;96666.88;5025130;28;20528;-48
2022/03/21 03:34:39;;;;;;;19.80;10.10;;;;;;;-7.19;79.80;96668.81;5022057;28;20038;-46
2022/03/21 03:37:07;;;;;;;30.95;10.23;;;;;;;-7.16;79.56;96671.19;5025069;28;20111;-50
2022/03/21 03:39:33;;;;;;;14.15;7.85;;;;;;;-7.13;78.83;96663.44;5028904;28;20421;-46
2022/03/21 03:42:00;;;;;;;18.88;9.20;;;;;;;-7.08;78.87;96665.75;5021102;28;20475;-47
2022/03/21 03:44:27;;;;;;;15.75;8.75;;;;;;;-7.05;77.88;96669.84;5021687;28;20049;-49
2022/03/21 03:46:54;;;;;;;34.97;15.82;;;;;;;-7.15;77.31;96654.28;5022290;28;20057;-47
2022/03/21 03:49:21;;;;;;;28.40;12.90;;;;;;;-7.24;77.79;96660.63;5022291;28;20484;-50
2022/03/21 03:51:48;;;;;;;15.40;8.00;;;;;;;-7.35;77.66;96657.81;5022099;28;20049;-48
2022/03/21 03:54:14;;;;;;;23.00;8.10;;;;;;;-7.42;78.10;96656.47;5021467;28;20041;-49
2022/03/21 03:56:41;;;;;;;18.52;9.07;;;;;;;-7.51;78.14;96652.66;5022023;28;20465;-50
2022/03/21 03:59:08;;;;;;;22.25;10.40;;;;;;;-7.55;78.58;96646.94;5026740;28;20057;-50
2022/03/21 04:01:35;;;;;;;32.60;15.73;;;;;;;-7.60;78.32;96648.88;5027973;28;20091;-48
2022/03/21 04:04:02;;;;;;;26.80;13.27;;;;;;;-7.56;78.61;96649.53;5020829;28;20053;-46
2022/03/21 04:06:28;;;;;;;40.65;15.88;;;;;;;-7.56;77.75;96650.38;5024685;28;20507;-48
2022/03/21 04:08:55;;;;;;;31.23;11.57;;;;;;;-7.65;78.57;96645.78;5021546;28;20053;-47
2022/03/21 04:11:22;;;;;;;36.67;11.65;;;;;;;-7.71;79.28;96635.94;5022956;28;20045;-47
2022/03/21 04:13:49;;;;;;;25.52;11.00;;;;;;;-7.65;79.83;96640.72;5025584;28;20737;-46
2022/03/21 04:16:16;;;;;;;22.20;12.00;;;;;;;-7.60;79.85;96641.28;5022257;28;20103;-49
2022/03/21 04:18:44;;;;;;;21.08;9.10;;;;;;;-7.68;80.05;96643.38;5022201;28;20471;-46
2022/03/21 04:21:24;;;;;;;25.48;9.35;;;;;;;-7.62;79.98;96645.59;5022582;28;20041;-47
2022/03/21 04:23:51;;;;;;;28.52;12.95;;;;;;;-7.60;79.86;96637.94;5022534;28;20486;-50
2022/03/21 04:26:18;;;;;;;18.80;9.95;;;;;;;-7.53;80.24;96640.09;5022373;28;20144;-47
2022/03/21 04:28:45;;;;;;;25.63;12.77;;;;;;;-7.37;79.68;96649.47;5021843;28;20037;-50
2022/03/21 04:31:12;;;;;;;20.00;10.52;;;;;;;-7.42;79.89;96651.41;5025958;28;20054;-46
2022/03/21 04:33:40;;;;;;;17.90;10.10;;;;;;;-7.34;79.75;96649.31;5019543;28;20069;-50
2022/03/21 04:36:07;;;;;;;29.50;12.68;;;;;;;-7.25;79.72;96643.81;5020779;28;20468;-51
2022/03/21 04:38:34;;;;;;;28.67;10.77;;;;;;;-7.23;79.59;96647.06;5028374;28;20045;-50
2022/03/21 04:41:00;;;;;;;30.80;11.75;;;;;;;-6.96;79.69;96644.84;5020800;28;20135;-51
2022/03/21 04:43:27;;;;;;;37.92;15.02;;;;;;;-6.86;79.33;96646.91;5020796;28;20047;-51
2022/03/21 04:45:54;;;;;;;48.38;14.63;;;;;;;-6.77;79.39;96639.69;5021056;28;20033;-50
2022/03/21 04:48:21;;;;;;;34.70;14.52;;;;;;;-6.69;78.59;96641.00;5020890;28;20061;-48
2022/03/21 04:50:48;;;;;;;32.78;14.23;;;;;;;-6.69;78.51;96653.66;5021131;28;20103;-53
2022/03/21 04:53:14;;;;;;;27.05;12.50;;;;;;;-6.62;78.27;96652.44;5021734;28;20478;-48
2022/03/21 04:55:42;;;;;;;46.00;17.23;;;;;;;-6.69;79.73;96656.19;5018983;28;20049;-49
2022/03/21 04:58:09;;;;;;;29.80;13.90;;;;;;;-6.56;79.40;96652.13;5022509;28;20049;-52
2022/03/21 05:00:38;;;;;;;39.45;16.17;;;;;;;-6.53;79.47;96654.50;5021181;28;20046;-49
2022/03/21 05:03:08;;;;;;;41.03;14.65;;;;;;;-6.46;79.20;96653.28;5019982;28;20057;-46
2022/03/21 05:05:43;;;;;;;51.03;20.52;;;;;;;-6.44;78.90;96631.19;5020641;28;20050;-47
2022/03/21 05:08:10;;;;;;;49.33;21.05;;;;;;;-6.30;78.89;96652.44;5019792;28;20053;-47
2022/03/21 05:10:37;;;;;;;29.17;14.80;;;;;;;-6.22;78.93;96655.41;5020785;28;20041;-48
2022/03/21 05:13:04;;;;;;;49.60;18.00;;;;;;;-6.12;78.76;96655.72;5020660;28;20415;-50
2022/03/21 05:15:31;;;;;;;53.20;25.35;;;;;;;-6.29;79.17;96618.59;5021339;28;20044;-52
2022/03/21 05:17:58;;;;;;;46.00;21.10;;;;;;;-5.99;78.96;96652.44;5021640;28;20788;-49
2022/03/21 05:20:27;;;;;;;51.08;22.73;;;;;;;-5.99;78.95;96647.34;5026810;28;20037;-51
2022/03/21 05:31:12;;;;;;;37.63;16.48;;;;;;;-5.62;76.32;96660.53;5024129;28;20481;-48
2022/03/21 05:36:27;;;;;;;34.30;16.02;;;;;;;-5.36;75.65;96665.84;5019632;28;20098;-47
2022/03/21 05:38:55;;;;;;;25.20;13.55;;;;;;;-5.24;75.08;96665.16;5021769;28;20057;-48
2022/03/21 05:41:22;;;;;;;24.42;13.32;;;;;;;-5.15;74.31;96673.94;5019601;28;20534;-47
2022/03/21 05:43:49;;;;;;;30.83;15.30;;;;;;;-5.10;73.95;96671.16;5019600;28;20617;-49
2022/03/21 05:46:17;;;;;;;30.05;15.05;;;;;;;-5.01;73.46;96665.53;5020925;28;20119;-50
2022/03/21 05:48:59;;;;;;;26.52;12.73;;;;;;;-4.91;72.68;96671.72;5022321;28;20494;-48
2022/03/21 05:51:32;;;;;;;32.78;13.18;;;;;;;-4.94;72.37;96661.72;5018993;28;20053;-47
2022/03/21 05:54:02;;;;;;;38.97;14.50;;;;;;;-4.70;71.67;96678.97;5021783;28;20570;-46
2022/03/21 05:56:29;;;;;;;32.60;12.38;;;;;;;-4.58;70.95;96668.06;5018243;28;20049;-47
2022/03/21 05:58:59;;;;;;;29.63;12.70;;;;;;;-4.35;74.43;96663.34;5020387;28;20038;-50
2022/03/21 06:01:26;;;;;;;40.97;18.52;;;;;;;-4.18;71.56;96665.63;5020101;28;20044;-51
2022/03/21 06:03:54;;;;;;;31.33;16.17;;;;;;;-4.05;69.84;96669.06;5020306;28;20064;-47
2022/03/21 06:06:22;;;;;;;34.78;17.10;;;;;;;-3.92;69.51;96675.97;5020350;28;20533;-46
2022/03/21 06:08:51;;;;;;;27.67;15.32;;;;;;;-3.85;68.16;96677.22;5021544;28;20128;-49
2022/03/21 06:11:19;;;;;;;37.10;14.65;;;;;;;-3.68;67.59;96679.47;5020558;28;20073;-47
2022/03/21 06:13:47;;;;;;;37.92;19.00;;;;;;;-3.51;67.14;96686.06;5026834;28;20069;-48
2022/03/21 06:16:15;;;;;;;30.77;11.68;;;;;;;-3.38;66.58;96675.91;5022572;28;20049;-45
2022/03/21 06:18:42;;;;;;;22.02;10.25;;;;;;;-3.28;66.15;96676.94;5020408;28;20049;-48
2022/03/21 06:21:09;;;;;;;19.83;10.20;;;;;;;-3.16;66.58;96682.16;5020594;28;20809;-47
2022/03/21 06:23:36;;;;;;;34.47;15.65;;;;;;;-3.02;66.67;96682.06;5027344;28;20033;-51
2022/03/21 06:26:05;;;;;;;26.30;13.77;;;;;;;-2.86;67.24;96670.84;5021240;28;20037;-48
2022/03/21 06:28:32;;;;;;;26.15;12.90;;;;;;;-2.66;66.15;96667.78;5017818;28;20123;-49
2022/03/21 06:30:59;;;;;;;25.73;14.00;;;;;;;-2.55;65.05;96675.50;5021290;28;20698;-49
2022/03/21 06:33:29;;;;;;;60.10;23.95;;;;;;;-2.38;64.74;96676.09;5021165;28;20053;-48
2022/03/21 06:35:57;;;;;;;27.15;14.48;;;;;;;-2.23;62.43;96675.06;5020419;28;20509;-48
2022/03/21 06:38:24;;;;;;;45.60;19.17;;;;;;;-2.13;63.87;96676.03;5025098;28;20046;-48
2022/03/21 06:40:51;;;;;;;32.15;14.35;;;;;;;-2.07;63.99;96666.31;5024196;28;20069;-48
2022/03/21 06:43:20;;;;;;;25.83;13.65;;;;;;;-2.03;64.01;96670.31;5021892;28;20045;-46
2022/03/21 06:45:51;;;;;;;35.25;16.98;;;;;;;-2.01;63.59;96655.69;5021097;28;20041;-48
2022/03/21 06:48:19;;;;;;;38.58;17.23;;;;;;;-1.81;64.39;96659.38;5023392;28;20041;-46
2022/03/21 06:50:46;;;;;;;22.77;12.07;;;;;;;-1.64;64.19;96660.72;5021775;28;20107;-46
2022/03/21 06:53:14;;;;;;;9.10;6.45;;;;;;;-1.48;62.27;96660.44;5023212;28;20065;-46
2022/03/21 06:55:42;;;;;;;25.55;13.38;;;;;;;-1.54;60.98;96669.38;5020631;28;20591;-50
2022/03/21 06:58:11;;;;;;;11.07;4.32;;;;;;;-1.45;58.68;96661.03;5019349;28;20060;-48
2022/03/21 07:00:39;;;;;;;22.85;7.47;;;;;;;-1.32;57.74;96660.16;5025350;28;20476;-47
2022/03/21 07:03:11;;;;;;;20.70;6.88;;;;;;;-1.25;56.77;96656.22;5023169;28;20033;-47
2022/03/21 07:05:38;;;;;;;24.88;9.82;;;;;;;-1.04;57.01;96653.81;5020976;28;20555;-47
2022/03/21 07:08:05;;;;;;;27.38;14.15;;;;;;;-0.71;57.36;96655.59;5022596;28;20049;-46
2022/03/21 07:10:32;;;;;;;39.63;18.20;;;;;;;-0.40;56.61;96654.09;5024180;28;20091;-49
2022/03/21 07:13:01;;;;;;;26.52;14.40;;;;;;;-0.09;55.80;96651.72;5021819;28;20041;-46
2022/03/21 07:15:28;;;;;;;26.00;13.25;;;;;;;0.05;56.21;96645.47;5022704;28;20046;-53
2022/03/21 07:17:58;;;;;;;19.73;9.35;;;;;;;0.26;55.01;96650.66;5027209;28;20055;-47
2022/03/21 07:20:26;;;;;;;22.33;12.13;;;;;;;0.48;54.06;96644.63;5028766;28;20033;-49
2022/03/21 07:22:57;;;;;;;24.27;12.02;;;;;;;0.66;52.10;96646.66;5022045;28;20056;-47
2022/03/21 07:25:24;;;;;;;20.80;8.38;;;;;;;0.97;51.49;96654.41;5022076;28;20121;-49
2022/03/21 07:27:54;;;;;;;22.27;11.23;;;;;;;1.15;50.47;96652.88;5020058;28;20041;-52
2022/03/21 07:30:21;;;;;;;17.88;9.02;;;;;;;1.19;50.39;96651.72;5022878;28;20065;-47
2022/03/21 07:32:48;;;;;;;28.33;9.88;;;;;;;1.35;48.49;96653.78;5024738;28;20152;-48
2022/03/21 07:35:15;;;;;;;16.52;9.30;;;;;;;1.37;49.19;96651.09;5023343;28;20064;-47
2022/03/21 07:37:56;;;;;;;19.63;10.23;;;;;;;1.71;49.95;96642.19;5028998;28;20072;-50
2022/03/21 07:40:24;;;;;;;22.90;9.60;;;;;;;1.91;49.20;96637.91;5025743;28;20523;-49
2022/03/21 07:42:51;;;;;;;25.13;11.98;;;;;;;1.98;48.53;96639.94;5027570;28;20041;-51
2022/03/21 07:48:03;;;;;;;20.10;10.60;;;;;;;2.00;47.42;96633.72;5025681;28;20052;-49
2022/03/21 07:50:31;;;;;;;24.65;11.65;;;;;;;2.27;47.34;96629.72;5024718;28;20038;-48
2022/03/21 07:53:00;;;;;;;19.08;10.27;;;;;;;2.57;47.00;96622.78;5023798;28;20046;-50
2022/03/21 07:55:27;;;;;;;24.27;11.25;;;;;;;2.86;46.59;96626.16;5028294;28;20099;-48
2022/03/21 07:57:54;;;;;;;24.65;11.05;;;;;;;2.83;45.31;96618.69;5022447;28;21115;-46
2022/03/21 08:00:21;;;;;;;29.67;12.43;;;;;;;2.93;44.70;96623.00;5027857;28;20056;-48
2022/03/21 08:02:47;;;;;;;23.35;10.57;;;;;;;3.25;44.11;96626.03;5024428;28;20183;-47
2022/03/21 08:05:15;;;;;;;29.13;12.45;;;;;;;3.50;42.45;96613.47;5024056;28;20388;-49
2022/03/21 08:07:42;;;;;;;25.25;11.05;;;;;;;3.71;42.37;96625.28;5023124;28;20053;-47
2022/03/21 08:10:10;;;;;;;24.05;12.18;;;;;;;3.86;41.05;96623.84;5023656;28;20154;-49
2022/03/21 08:12:42;;;;;;;24.35;12.82;;;;;;;4.09;41.17;96621.69;5022796;28;20077;-47
2022/03/21 08:15:12;;;;;;;19.42;9.27;;;;;;;4.56;39.18;96615.50;5025883;28;20046;-46
2022/03/21 08:17:49;;;;;;;23.92;12.57;;;;;;;4.78;38.13;96619.38;5024790;28;20053;-48
2022/03/21 08:20:20;;;;;;;21.48;9.40;;;;;;;4.98;36.57;96619.97;5029532;28;20052;-47
2022/03/21 08:22:47;;;;;;;15.05;8.52;;;;;;;5.16;37.72;96612.19;5023886;28;20049;-49
2022/03/21 08:25:16;;;;;;;18.48;8.07;;;;;;;5.36;36.57;96617.94;5029565;28;20041;-51
2022/03/21 08:27:43;;;;;;;14.23;7.35;;;;;;;5.60;36.47;96613.84;5027014;28;20431;-49
2022/03/21 08:30:12;;;;;;;11.90;7.13;;;;;;;5.73;35.59;96614.22;5022653;28;20060;-49
2022/03/21 08:32:44;;;;;;;13.07;6.90;;;;;;;5.47;35.72;96604.72;5027926;28;20050;-49
2022/03/21 08:35:11;;;;;;;18.50;7.72;;;;;;;5.52;35.29;96612.03;5026897;28;20037;-46
2022/03/21 08:37:39;;;;;;;16.63;6.25;;;;;;;5.47;35.07;96591.81;5022601;28;20136;-48
2022/03/21 08:40:07;;;;;;;11.63;7.25;;;;;;;5.43;34.83;96608.59;5024712;28;20042;-47
2022/03/21 08:42:35;;;;;;;12.55;6.97;;;;;;;5.30;35.84;96614.19;5022523;28;20076;-51
2022/03/21 08:45:03;;;;;;;11.45;5.35;;;;;;;5.55;34.95;96617.69;5032270;28;20041;-45
2022/03/21 08:47:30;;;;;;;13.93;5.57;;;;;;;5.38;34.50;96594.53;5024396;28;20070;-48
2022/03/21 08:49:57;;;;;;;15.18;7.00;;;;;;;5.29;35.77;96609.16;5019972;28;20060;-46
2022/03/21 08:52:23;;;;;;;13.10;6.38;;;;;;;5.27;34.85;96609.31;5022326;28;20054;-47
2022/03/21 08:54:51;;;;;;;10.48;5.50;;;;;;;5.29;34.37;96611.75;5021267;28;20048;-49
2022/03/21 08:57:17;;;;;;;10.93;6.15;;;;;;;5.36;35.62;96602.44;5025182;28;20049;-47
2022/03/21 08:59:45;;;;;;;15.77;6.28;;;;;;;5.35;35.28;96600.81;5021685;28;20053;-49
2022/03/21 09:02:13;;;;;;;11.25;6.03;;;;;;;5.29;34.61;96591.09;5024452;28;20049;-50
2022/03/21 09:04:41;;;;;;;14.30;7.47;;;;;;;5.35;34.95;96608.56;5023601;28;20057;-50
2022/03/21 09:07:11;;;;;;;13.82;7.72;;;;;;;5.44;35.30;96605.06;5023530;28;20048;-50
2022/03/21 09:09:38;;;;;;;18.63;7.82;;;;;;;5.64;34.74;96610.00;5019962;28;20111;-47
2022/03/21 09:12:07;;;;;;;18.00;8.25;;;;;;;5.68;34.38;96606.91;5023228;28;20048;-47
2022/03/21 09:14:35;;;;;;;19.77;9.23;;;;;;;5.72;34.79;96615.19;5022457;28;20061;-48
2022/03/21 09:17:03;;;;;;;13.10;6.13;;;;;;;5.67;33.42;96609.66;5024491;28;20060;-46
2022/03/21 09:19:30;;;;;;;14.07;6.95;;;;;;;5.70;34.20;96619.69;5019944;28;20054;-47
2022/03/21 09:21:57;;;;;;;17.33;7.82;;;;;;;5.87;34.08;96590.34;5027389;28;20051;-50
2022/03/21 09:24:25;;;;;;;18.33;8.93;;;;;;;6.03;33.45;96609.47;5022694;28;20060;-47
2022/03/21 09:26:51;;;;;;;17.95;7.78;;;;;;;6.26;33.72;96600.13;5026018;28;20761;-48
2022/03/21 09:29:18;;;;;;;27.58;13.90;;;;;;;6.29;34.70;96604.19;5024114;28;20053;-47
2022/03/21 09:31:47;;;;;;;16.35;7.82;;;;;;;6.30;32.95;96562.63;5028433;28;20060;-49
2022/03/21 09:34:16;;;;;;;13.27;6.63;;;;;;;6.78;33.23;96588.66;5024941;28;20666;-49
2022/03/21 09:36:44;;;;;;;13.23;7.43;;;;;;;7.17;33.18;96587.13;5020763;28;20099;-49
2022/03/21 09:39:12;;;;;;;18.00;7.20;;;;;;;7.30;31.87;96587.41;5019865;28;20057;-50
2022/03/21 09:41:39;;;;;;;9.73;5.90;;;;;;;7.45;32.61;96597.88;5020407;28;20091;-48
2022/03/21 09:44:09;;;;;;;10.60;7.10;;;;;;;7.65;31.85;96596.53;5018642;28;20037;-47
2022/03/21 09:46:41;;;;;;;15.35;7.38;;;;;;;7.03;32.56;96586.81;5022096;28;20042;-47
2022/03/21 09:49:10;;;;;;;15.60;5.43;;;;;;;7.00;31.27;96576.78;5020670;28;20465;-52
2022/03/21 09:51:39;;;;;;;17.75;8.27;;;;;;;7.02;32.49;96593.00;5023151;28;20422;-50
2022/03/21 09:54:06;;;;;;;17.40;8.93;;;;;;;6.82;33.21;96591.72;5030046;28;20048;-48
2022/03/21 09:56:33;;;;;;;16.75;8.50;;;;;;;7.00;33.59;96576.78;5022124;28;20048;-50
2022/03/21 09:59:00;;;;;;;16.33;8.02;;;;;;;7.37;31.13;96580.59;5023644;28;20591;-49
2022/03/21 10:01:29;;;;;;;17.90;7.95;;;;;;;7.52;32.08;96585.88;5020575;28;20053;-46
2022/03/21 10:03:57;;;;;;;11.73;7.03;;;;;;;7.76;30.58;96592.75;5026515;28;20059;-49
2022/03/21 10:06:34;;;;;;;11.02;6.18;;;;;;;8.04;31.30;96584.47;5023198;28;20068;-49
2022/03/21 10:09:07;;;;;;;19.35;7.55;;;;;;;8.20;29.84;96584.38;5022928;28;20045;-47
2022/03/21 10:11:34;;;;;;;15.20;6.75;;;;;;;7.87;29.88;96572.56;5019544;28;20049;-47
2022/03/21 10:14:33;;;;;;;13.27;6.40;;;;;;;8.20;30.39;96574.00;5023089;28;20057;-49
2022/03/21 10:17:01;;;;;;;15.60;6.38;;;;;;;8.38;29.55;96565.13;5029216;28;20064;-48
2022/03/21 10:19:44;;;;;;;9.55;4.97;;;;;;;8.67;29.71;96563.59;5026108;28;20514;-47
2022/03/21 10:22:13;;;;;;;13.75;7.80;;;;;;;8.86;29.24;96573.50;5023953;28;20077;-52
2022/03/21 10:24:43;;;;;;;13.57;6.80;;;;;;;8.44;28.93;96563.63;5018803;28;20033;-51
2022/03/21 10:27:39;;;;;;;11.65;6.57;;;;;;;8.67;28.99;96563.59;5018352;28;20060;-48
2022/03/21 10:30:12;;;;;;;14.65;7.85;;;;;;;8.63;29.98;96564.94;5022980;28;20049;-47
2022/03/21 10:32:54;;;;;;;20.88;13.43;;;;;;;8.89;29.29;96565.34;5022009;28;20054;-49
2022/03/21 10:35:24;;;;;;;14.35;7.07;;;;;;;9.21;28.53;96568.59;5019984;28;20041;-46
2022/03/21 10:38:02;;;;;;;11.25;6.30;;;;;;;9.27;28.46;96549.66;5022676;28;20053;-47
2022/03/21 10:40:33;;;;;;;11.80;7.05;;;;;;;9.41;28.46;96560.25;5021441;28;20466;-49
2022/03/21 10:43:04;;;;;;;11.02;6.72;;;;;;;9.40;28.29;96558.63;5020294;28;20052;-50
2022/03/21 10:45:36;;;;;;;13.50;6.65;;;;;;;9.44;28.54;96555.50;5024065;28;20045;-49
2022/03/21 10:48:05;;;;;;;15.50;7.78;;;;;;;9.38;28.63;96548.41;5018879;28;20049;-49
2022/03/21 10:50:40;;;;;;;14.57;8.65;;;;;;;9.23;28.12;96553.63;5019356;28;20053;-48
2022/03/21 10:53:18;;;;;;;24.23;9.48;;;;;;;8.96;28.20;96555.84;5021219;28;20068;-47
2022/03/21 10:55:47;;;;;;;24.00;9.85;;;;;;;9.14;29.66;96549.50;5022111;28;20041;-50
2022/03/21 10:58:17;;;;;;;21.38;9.25;;;;;;;9.10;28.86;96548.25;5022436;28;20068;-47
2022/03/21 11:00:44;;;;;;;23.25;11.05;;;;;;;8.90;28.72;96551.38;5028668;28;20080;-47
2022/03/21 11:03:15;;;;;;;17.17;8.93;;;;;;;9.15;28.62;96540.72;5027372;28;20051;-50
2022/03/21 11:05:47;;;;;;;15.43;7.82;;;;;;;9.47;28.60;96543.91;5021295;28;20045;-49
2022/03/21 11:08:18;;;;;;;13.95;7.50;;;;;;;9.69;27.97;96532.56;5024394;28;20541;-50
2022/03/21 11:10:46;;;;;;;13.82;8.38;;;;;;;10.14;27.68;96525.44;5024318;28;20430;-49
2022/03/21 11:13:13;;;;;;;12.88;7.18;;;;;;;10.07;27.84;96519.34;5029227;28;20045;-50
2022/03/21 11:15:43;;;;;;;16.48;8.73;;;;;;;9.89;28.54;96521.56;5025199;28;20041;-48
2022/03/21 11:18:10;;;;;;;16.23;8.23;;;;;;;9.92;27.99;96521.19;5019174;28;22117;-51
2022/03/21 11:20:37;;;;;;;11.07;6.78;;;;;;;9.42;27.96;96525.44;5021106;28;20513;-49
2022/03/21 11:23:05;;;;;;;13.43;6.70;;;;;;;9.04;29.18;96513.38;5020032;28;20072;-46
2022/03/21 11:25:35;;;;;;;11.10;5.70;;;;;;;8.87;28.10;96506.75;5023832;28;22177;-49
2022/03/21 11:28:26;;;;;;;15.07;8.82;;;;;;;8.77;28.91;96491.44;5023481;28;20061;-48
2022/03/21 11:30:59;;;;;;;15.63;7.18;;;;;;;8.79;28.98;96511.03;5014855;28;20057;-47
2022/03/21 11:33:46;;;;;;;13.50;7.65;;;;;;;8.90;29.14;96507.19;5019795;28;20061;-47
2022/03/21 11:36:14;;;;;;;11.75;6.43;;;;;;;9.26;27.36;96501.25;5010735;28;20046;-48
2022/03/21 11:38:47;;;;;;;11.57;7.10;;;;;;;9.42;27.49;96499.44;5021740;28;20076;-48
2022/03/21 11:41:21;;;;;;;15.40;7.07;;;;;;;9.83;28.78;96488.47;5020170;28;20500;-46
2022/03/21 11:44:15;;;;;;;12.00;6.43;;;;;;;10.16;26.55;96474.97;5020462;28;20128;-48
2022/03/21 11:46:47;;;;;;;10.07;5.35;;;;;;;9.62;27.59;96484.88;5017897;28;20060;-51
2022/03/21 11:49:18;;;;;;;14.65;6.88;;;;;;;9.77;27.31;96477.81;5021026;28;20049;-49